Weather at Los Angeles International Airport

Public forecast

Using degrees Fahrenheit for public forecast. Weather courtesy of forecast.io.

Current aviation weather report (METAR) for Los Angeles International Airport

Retrieved 2021/03/04 00:53 UTC (2 hours ago):

KLAX 040053Z 10010KT 10SM SCT037 BKN065 BKN250 14/06 A2989 RMK AO2 SLP121 T01390056

Aviation forecast (TAF) for Los Angeles International Airport

Retrieved 2021-03-04 00:51 UTC (2 hours ago):

TAF KLAX 032347Z 0400/0506 06012KT P6SM VCSH SCT040 BKN070 FM040300 06008KT P6SM BKN050 BKN150 FM041200 06006KT P6SM SCT150 FM041700 VRB03KT P6SM SCT250 FM042100 26010KT P6SM SCT250 FM050300 VRB03KT P6SM SKC